sensor_id;sensor_type;location;lat;lon;timestamp;P1;durP1;ratioP1;P2;durP2;ratioP2
78416;SDS011;67715;46.170;6.140;2023-06-22T00:01:26;8.10;;;4.27;;
78416;SDS011;67715;46.170;6.140;2023-06-22T00:03:52;10.13;;;4.20;;
78416;SDS011;67715;46.170;6.140;2023-06-22T00:06:17;6.83;;;4.70;;
78416;SDS011;67715;46.170;6.140;2023-06-22T00:08:42;10.63;;;3.73;;
78416;SDS011;67715;46.170;6.140;2023-06-22T00:11:08;9.43;;;4.00;;
78416;SDS011;67715;46.170;6.140;2023-06-22T00:13:33;9.07;;;4.47;;
78416;SDS011;67715;46.170;6.140;2023-06-22T00:15:58;7.57;;;4.30;;
78416;SDS011;67715;46.170;6.140;2023-06-22T00:18:24;9.13;;;4.10;;
78416;SDS011;67715;46.170;6.140;2023-06-22T00:20:52;8.73;;;4.85;;
78416;SDS011;67715;46.170;6.140;2023-06-22T00:23:22;8.90;;;3.88;;
78416;SDS011;67715;46.170;6.140;2023-06-22T00:25:48;10.02;;;4.85;;
78416;SDS011;67715;46.170;6.140;2023-06-22T00:28:14;8.48;;;3.53;;
78416;SDS011;67715;46.170;6.140;2023-06-22T00:30:39;8.53;;;4.37;;
78416;SDS011;67715;46.170;6.140;2023-06-22T00:33:04;11.73;;;4.33;;
78416;SDS011;67715;46.170;6.140;2023-06-22T00:35:32;9.27;;;3.95;;
78416;SDS011;67715;46.170;6.140;2023-06-22T00:37:58;11.40;;;5.07;;
78416;SDS011;67715;46.170;6.140;2023-06-22T00:40:26;9.85;;;4.63;;
78416;SDS011;67715;46.170;6.140;2023-06-22T00:42:54;10.02;;;3.70;;
78416;SDS011;67715;46.170;6.140;2023-06-22T00:45:20;9.65;;;4.88;;
78416;SDS011;67715;46.170;6.140;2023-06-22T00:47:47;8.02;;;3.53;;
78416;SDS011;67715;46.170;6.140;2023-06-22T00:50:15;4.90;;;3.50;;
78416;SDS011;67715;46.170;6.140;2023-06-22T00:52:46;6.75;;;4.03;;
78416;SDS011;67715;46.170;6.140;2023-06-22T00:55:13;10.95;;;4.07;;
78416;SDS011;67715;46.170;6.140;2023-06-22T00:57:39;7.53;;;4.03;;
78416;SDS011;67715;46.170;6.140;2023-06-22T01:00:05;10.20;;;4.95;;
78416;SDS011;67715;46.170;6.140;2023-06-22T01:02:32;8.20;;;4.35;;
78416;SDS011;67715;46.170;6.140;2023-06-22T01:04:57;11.55;;;4.35;;
78416;SDS011;67715;46.170;6.140;2023-06-22T01:12:26;12.45;;;4.82;;
78416;SDS011;67715;46.170;6.140;2023-06-22T01:14:55;10.50;;;4.05;;
78416;SDS011;67715;46.170;6.140;2023-06-22T01:17:28;10.75;;;4.38;;
78416;SDS011;67715;46.170;6.140;2023-06-22T01:19:54;9.38;;;4.53;;
78416;SDS011;67715;46.170;6.140;2023-06-22T01:22:22;6.63;;;4.35;;
78416;SDS011;67715;46.170;6.140;2023-06-22T01:30:11;7.45;;;4.07;;
78416;SDS011;67715;46.170;6.140;2023-06-22T01:32:40;6.40;;;3.97;;
78416;SDS011;67715;46.170;6.140;2023-06-22T01:35:06;8.55;;;4.50;;
78416;SDS011;67715;46.170;6.140;2023-06-22T01:37:33;10.00;;;4.57;;
78416;SDS011;67715;46.170;6.140;2023-06-22T01:39:59;8.77;;;4.47;;
78416;SDS011;67715;46.170;6.140;2023-06-22T01:42:25;9.88;;;3.75;;
78416;SDS011;67715;46.170;6.140;2023-06-22T01:44:53;6.82;;;3.78;;
78416;SDS011;67715;46.170;6.140;2023-06-22T01:47:20;6.03;;;3.65;;
78416;SDS011;67715;46.170;6.140;2023-06-22T01:49:46;7.53;;;4.60;;
78416;SDS011;67715;46.170;6.140;2023-06-22T01:52:11;6.63;;;4.13;;
78416;SDS011;67715;46.170;6.140;2023-06-22T01:54:37;8.00;;;4.47;;
78416;SDS011;67715;46.170;6.140;2023-06-22T01:57:03;7.75;;;4.75;;
78416;SDS011;67715;46.170;6.140;2023-06-22T01:59:31;8.13;;;4.63;;
78416;SDS011;67715;46.170;6.140;2023-06-22T02:02:09;7.90;;;3.58;;
78416;SDS011;67715;46.170;6.140;2023-06-22T02:04:48;9.35;;;3.78;;
78416;SDS011;67715;46.170;6.140;2023-06-22T02:07:17;5.35;;;3.45;;
78416;SDS011;67715;46.170;6.140;2023-06-22T02:09:44;7.28;;;4.22;;
78416;SDS011;67715;46.170;6.140;2023-06-22T02:12:13;9.50;;;4.25;;
78416;SDS011;67715;46.170;6.140;2023-06-22T02:14:43;5.80;;;3.92;;
78416;SDS011;67715;46.170;6.140;2023-06-22T02:17:11;9.82;;;4.28;;
78416;SDS011;67715;46.170;6.140;2023-06-22T02:19:37;7.28;;;4.38;;
78416;SDS011;67715;46.170;6.140;2023-06-22T02:22:03;7.47;;;4.53;;
78416;SDS011;67715;46.170;6.140;2023-06-22T02:24:29;7.60;;;4.38;;
78416;SDS011;67715;46.170;6.140;2023-06-22T02:26:57;10.63;;;5.10;;
78416;SDS011;67715;46.170;6.140;2023-06-22T02:29:22;8.70;;;4.38;;
78416;SDS011;67715;46.170;6.140;2023-06-22T02:31:48;8.73;;;4.27;;
78416;SDS011;67715;46.170;6.140;2023-06-22T02:34:13;10.23;;;4.33;;
78416;SDS011;67715;46.170;6.140;2023-06-22T02:36:43;9.50;;;4.65;;
78416;SDS011;67715;46.170;6.140;2023-06-22T02:39:15;8.60;;;5.28;;
78416;SDS011;67715;46.170;6.140;2023-06-22T02:41:42;9.65;;;3.75;;
78416;SDS011;67715;46.170;6.140;2023-06-22T02:44:07;10.73;;;4.07;;
78416;SDS011;67715;46.170;6.140;2023-06-22T02:46:33;10.63;;;4.50;;
78416;SDS011;67715;46.170;6.140;2023-06-22T02:48:58;5.57;;;3.83;;
78416;SDS011;67715;46.170;6.140;2023-06-22T02:51:23;9.73;;;4.70;;
78416;SDS011;67715;46.170;6.140;2023-06-22T02:53:49;7.03;;;3.90;;
78416;SDS011;67715;46.170;6.140;2023-06-22T02:56:21;9.15;;;4.05;;
78416;SDS011;67715;46.170;6.140;2023-06-22T02:58:50;10.63;;;4.35;;
78416;SDS011;67715;46.170;6.140;2023-06-22T03:01:15;8.55;;;4.38;;
78416;SDS011;67715;46.170;6.140;2023-06-22T03:03:40;9.27;;;4.60;;
78416;SDS011;67715;46.170;6.140;2023-06-22T03:06:06;7.50;;;4.13;;
78416;SDS011;67715;46.170;6.140;2023-06-22T03:08:31;6.33;;;4.23;;
78416;SDS011;67715;46.170;6.140;2023-06-22T03:10:56;8.80;;;4.13;;
78416;SDS011;67715;46.170;6.140;2023-06-22T03:13:22;8.07;;;3.57;;
78416;SDS011;67715;46.170;6.140;2023-06-22T03:15:47;12.70;;;5.22;;
78416;SDS011;67715;46.170;6.140;2023-06-22T03:18:13;10.83;;;4.57;;
78416;SDS011;67715;46.170;6.140;2023-06-22T03:20:38;7.83;;;4.00;;
78416;SDS011;67715;46.170;6.140;2023-06-22T03:23:04;9.10;;;3.97;;
78416;SDS011;67715;46.170;6.140;2023-06-22T03:25:30;7.15;;;4.18;;
78416;SDS011;67715;46.170;6.140;2023-06-22T03:27:55;10.27;;;4.85;;
78416;SDS011;67715;46.170;6.140;2023-06-22T03:30:20;11.00;;;3.90;;
78416;SDS011;67715;46.170;6.140;2023-06-22T03:32:46;7.93;;;4.00;;
78416;SDS011;67715;46.170;6.140;2023-06-22T03:35:11;9.55;;;4.35;;
78416;SDS011;67715;46.170;6.140;2023-06-22T03:37:38;10.18;;;5.05;;
78416;SDS011;67715;46.170;6.140;2023-06-22T03:40:03;9.87;;;4.67;;
78416;SDS011;67715;46.170;6.140;2023-06-22T03:42:30;8.70;;;4.50;;
78416;SDS011;67715;46.170;6.140;2023-06-22T03:44:55;8.30;;;5.22;;
78416;SDS011;67715;46.170;6.140;2023-06-22T03:47:20;9.00;;;4.37;;
78416;SDS011;67715;46.170;6.140;2023-06-22T03:49:46;6.35;;;4.15;;
78416;SDS011;67715;46.170;6.140;2023-06-22T03:52:12;9.60;;;4.27;;
78416;SDS011;67715;46.170;6.140;2023-06-22T03:54:37;10.95;;;4.28;;
78416;SDS011;67715;46.170;6.140;2023-06-22T03:57:03;7.77;;;4.23;;
78416;SDS011;67715;46.170;6.140;2023-06-22T03:59:28;7.57;;;4.30;;
78416;SDS011;67715;46.170;6.140;2023-06-22T04:01:54;7.07;;;3.77;;
78416;SDS011;67715;46.170;6.140;2023-06-22T04:04:19;7.47;;;3.83;;
78416;SDS011;67715;46.170;6.140;2023-06-22T04:06:45;15.38;;;5.00;;
78416;SDS011;67715;46.170;6.140;2023-06-22T04:09:10;10.13;;;4.83;;
78416;SDS011;67715;46.170;6.140;2023-06-22T04:11:36;6.78;;;3.72;;
78416;SDS011;67715;46.170;6.140;2023-06-22T04:14:01;8.00;;;4.22;;
78416;SDS011;67715;46.170;6.140;2023-06-22T04:16:26;6.00;;;4.35;;
78416;SDS011;67715;46.170;6.140;2023-06-22T04:18:52;10.07;;;4.80;;
78416;SDS011;67715;46.170;6.140;2023-06-22T04:21:17;14.17;;;5.63;;
78416;SDS011;67715;46.170;6.140;2023-06-22T04:23:44;8.35;;;4.13;;
78416;SDS011;67715;46.170;6.140;2023-06-22T04:26:10;13.13;;;5.03;;
78416;SDS011;67715;46.170;6.140;2023-06-22T04:28:36;10.45;;;4.97;;
78416;SDS011;67715;46.170;6.140;2023-06-22T04:31:02;10.30;;;4.67;;
78416;SDS011;67715;46.170;6.140;2023-06-22T04:33:27;7.47;;;3.60;;
78416;SDS011;67715;46.170;6.140;2023-06-22T04:35:54;9.77;;;4.15;;
78416;SDS011;67715;46.170;6.140;2023-06-22T04:38:22;10.30;;;5.00;;
78416;SDS011;67715;46.170;6.140;2023-06-22T04:40:47;12.07;;;5.75;;
78416;SDS011;67715;46.170;6.140;2023-06-22T04:43:13;9.50;;;5.20;;
78416;SDS011;67715;46.170;6.140;2023-06-22T04:45:38;17.53;;;6.27;;
78416;SDS011;67715;46.170;6.140;2023-06-22T04:48:04;11.43;;;5.90;;
78416;SDS011;67715;46.170;6.140;2023-06-22T04:50:30;10.43;;;5.13;;
78416;SDS011;67715;46.170;6.140;2023-06-22T04:52:55;8.70;;;4.23;;
78416;SDS011;67715;46.170;6.140;2023-06-22T04:55:20;14.03;;;5.30;;
78416;SDS011;67715;46.170;6.140;2023-06-22T04:57:46;10.00;;;5.07;;
78416;SDS011;67715;46.170;6.140;2023-06-22T05:00:14;13.82;;;5.50;;
78416;SDS011;67715;46.170;6.140;2023-06-22T05:02:42;9.10;;;5.43;;
78416;SDS011;67715;46.170;6.140;2023-06-22T05:05:09;11.35;;;4.80;;
78416;SDS011;67715;46.170;6.140;2023-06-22T05:07:38;11.98;;;5.28;;
78416;SDS011;67715;46.170;6.140;2023-06-22T05:10:08;9.85;;;5.10;;
78416;SDS011;67715;46.170;6.140;2023-06-22T05:12:35;9.38;;;4.85;;
78416;SDS011;67715;46.170;6.140;2023-06-22T05:15:00;12.63;;;5.27;;
78416;SDS011;67715;46.170;6.140;2023-06-22T05:17:26;7.68;;;4.28;;
78416;SDS011;67715;46.170;6.140;2023-06-22T05:19:52;12.60;;;5.60;;
78416;SDS011;67715;46.170;6.140;2023-06-22T05:22:17;12.07;;;5.55;;
78416;SDS011;67715;46.170;6.140;2023-06-22T05:24:42;9.32;;;4.70;;
78416;SDS011;67715;46.170;6.140;2023-06-22T05:27:08;8.57;;;4.90;;
78416;SDS011;67715;46.170;6.140;2023-06-22T05:29:34;10.48;;;5.45;;
78416;SDS011;67715;46.170;6.140;2023-06-22T05:32:00;13.75;;;6.18;;
78416;SDS011;67715;46.170;6.140;2023-06-22T05:34:25;11.88;;;5.65;;
78416;SDS011;67715;46.170;6.140;2023-06-22T05:36:51;13.40;;;5.82;;
78416;SDS011;67715;46.170;6.140;2023-06-22T05:39:16;10.47;;;5.00;;
78416;SDS011;67715;46.170;6.140;2023-06-22T05:41:42;12.85;;;6.10;;
78416;SDS011;67715;46.170;6.140;2023-06-22T05:44:08;13.00;;;6.90;;
78416;SDS011;67715;46.170;6.140;2023-06-22T05:46:33;10.57;;;5.53;;
78416;SDS011;67715;46.170;6.140;2023-06-22T05:48:59;13.25;;;6.03;;
78416;SDS011;67715;46.170;6.140;2023-06-22T05:51:24;9.65;;;4.88;;
78416;SDS011;67715;46.170;6.140;2023-06-22T05:53:49;14.53;;;6.03;;
78416;SDS011;67715;46.170;6.140;2023-06-22T05:56:15;13.38;;;6.45;;
78416;SDS011;67715;46.170;6.140;2023-06-22T05:58:41;13.80;;;6.45;;
78416;SDS011;67715;46.170;6.140;2023-06-22T06:01:06;11.13;;;6.13;;
78416;SDS011;67715;46.170;6.140;2023-06-22T06:03:31;13.13;;;5.63;;
78416;SDS011;67715;46.170;6.140;2023-06-22T06:05:57;14.27;;;6.05;;
78416;SDS011;67715;46.170;6.140;2023-06-22T06:08:22;14.73;;;6.00;;
78416;SDS011;67715;46.170;6.140;2023-06-22T06:10:48;13.32;;;6.00;;
78416;SDS011;67715;46.170;6.140;2023-06-22T06:13:13;16.38;;;7.05;;
78416;SDS011;67715;46.170;6.140;2023-06-22T06:15:38;13.63;;;6.03;;
78416;SDS011;67715;46.170;6.140;2023-06-22T06:18:04;19.00;;;7.70;;
78416;SDS011;67715;46.170;6.140;2023-06-22T06:20:30;16.30;;;6.65;;
78416;SDS011;67715;46.170;6.140;2023-06-22T06:22:56;17.77;;;6.93;;
78416;SDS011;67715;46.170;6.140;2023-06-22T06:25:21;14.43;;;6.95;;
78416;SDS011;67715;46.170;6.140;2023-06-22T06:27:48;14.15;;;6.25;;
78416;SDS011;67715;46.170;6.140;2023-06-22T06:30:14;11.70;;;6.25;;
78416;SDS011;67715;46.170;6.140;2023-06-22T06:32:40;11.15;;;6.40;;
78416;SDS011;67715;46.170;6.140;2023-06-22T06:35:06;9.35;;;6.10;;
78416;SDS011;67715;46.170;6.140;2023-06-22T06:37:35;12.60;;;5.80;;
78416;SDS011;67715;46.170;6.140;2023-06-22T06:40:01;13.95;;;6.10;;
78416;SDS011;67715;46.170;6.140;2023-06-22T06:42:27;11.77;;;5.35;;
78416;SDS011;67715;46.170;6.140;2023-06-22T06:44:52;14.40;;;6.80;;
78416;SDS011;67715;46.170;6.140;2023-06-22T06:47:18;13.33;;;5.57;;
78416;SDS011;67715;46.170;6.140;2023-06-22T06:49:43;9.50;;;5.30;;
78416;SDS011;67715;46.170;6.140;2023-06-22T06:52:08;11.80;;;5.93;;
78416;SDS011;67715;46.170;6.140;2023-06-22T06:54:33;11.93;;;5.87;;
78416;SDS011;67715;46.170;6.140;2023-06-22T06:56:59;13.40;;;5.60;;
78416;SDS011;67715;46.170;6.140;2023-06-22T06:59:24;8.97;;;5.67;;
78416;SDS011;67715;46.170;6.140;2023-06-22T07:01:49;12.30;;;5.73;;
78416;SDS011;67715;46.170;6.140;2023-06-22T07:04:15;10.47;;;5.27;;
78416;SDS011;67715;46.170;6.140;2023-06-22T07:06:40;12.23;;;5.83;;
78416;SDS011;67715;46.170;6.140;2023-06-22T07:09:05;11.25;;;5.50;;
78416;SDS011;67715;46.170;6.140;2023-06-22T07:11:31;11.13;;;5.80;;
78416;SDS011;67715;46.170;6.140;2023-06-22T07:13:56;17.40;;;7.00;;
78416;SDS011;67715;46.170;6.140;2023-06-22T07:16:21;15.40;;;6.00;;
78416;SDS011;67715;46.170;6.140;2023-06-22T07:18:47;19.50;;;6.10;;
78416;SDS011;67715;46.170;6.140;2023-06-22T07:21:13;10.73;;;6.00;;
78416;SDS011;67715;46.170;6.140;2023-06-22T07:23:38;11.23;;;5.60;;
78416;SDS011;67715;46.170;6.140;2023-06-22T07:26:03;19.30;;;6.67;;
78416;SDS011;67715;46.170;6.140;2023-06-22T07:28:31;13.85;;;6.18;;
78416;SDS011;67715;46.170;6.140;2023-06-22T07:31:01;9.82;;;5.22;;
78416;SDS011;67715;46.170;6.140;2023-06-22T07:33:28;16.08;;;5.85;;
78416;SDS011;67715;46.170;6.140;2023-06-22T07:35:53;12.52;;;5.80;;
78416;SDS011;67715;46.170;6.140;2023-06-22T07:38:18;17.27;;;7.20;;
78416;SDS011;67715;46.170;6.140;2023-06-22T07:40:43;8.87;;;5.20;;
78416;SDS011;67715;46.170;6.140;2023-06-22T07:43:09;13.17;;;5.70;;
78416;SDS011;67715;46.170;6.140;2023-06-22T07:45:34;11.17;;;5.60;;
78416;SDS011;67715;46.170;6.140;2023-06-22T07:48:00;12.85;;;5.93;;
78416;SDS011;67715;46.170;6.140;2023-06-22T07:50:25;14.25;;;6.65;;
78416;SDS011;67715;46.170;6.140;2023-06-22T07:52:51;11.40;;;5.22;;
78416;SDS011;67715;46.170;6.140;2023-06-22T07:55:17;19.63;;;6.78;;
78416;SDS011;67715;46.170;6.140;2023-06-22T07:57:43;12.30;;;5.75;;
78416;SDS011;67715;46.170;6.140;2023-06-22T08:00:08;18.40;;;6.27;;
78416;SDS011;67715;46.170;6.140;2023-06-22T08:02:41;12.70;;;6.05;;
78416;SDS011;67715;46.170;6.140;2023-06-22T08:05:07;12.43;;;5.65;;
78416;SDS011;67715;46.170;6.140;2023-06-22T08:07:34;17.90;;;6.32;;
78416;SDS011;67715;46.170;6.140;2023-06-22T08:10:02;10.90;;;6.18;;
78416;SDS011;67715;46.170;6.140;2023-06-22T08:12:28;10.27;;;5.88;;
78416;SDS011;67715;46.170;6.140;2023-06-22T08:14:53;15.32;;;6.57;;
78416;SDS011;67715;46.170;6.140;2023-06-22T08:17:19;13.48;;;6.53;;
78416;SDS011;67715;46.170;6.140;2023-06-22T08:19:44;13.47;;;6.03;;
78416;SDS011;67715;46.170;6.140;2023-06-22T08:22:09;15.83;;;7.47;;
78416;SDS011;67715;46.170;6.140;2023-06-22T08:24:35;15.17;;;6.30;;
78416;SDS011;67715;46.170;6.140;2023-06-22T08:27:00;13.25;;;6.47;;
78416;SDS011;67715;46.170;6.140;2023-06-22T08:29:25;13.80;;;6.43;;
78416;SDS011;67715;46.170;6.140;2023-06-22T08:31:51;24.57;;;7.03;;
78416;SDS011;67715;46.170;6.140;2023-06-22T08:34:16;16.43;;;7.40;;
78416;SDS011;67715;46.170;6.140;2023-06-22T08:36:46;12.27;;;6.22;;
78416;SDS011;67715;46.170;6.140;2023-06-22T08:41:43;11.60;;;6.57;;
78416;SDS011;67715;46.170;6.140;2023-06-22T08:44:08;14.53;;;6.83;;
78416;SDS011;67715;46.170;6.140;2023-06-22T08:46:33;21.58;;;7.60;;
78416;SDS011;67715;46.170;6.140;2023-06-22T08:48:59;15.17;;;7.10;;
78416;SDS011;67715;46.170;6.140;2023-06-22T08:51:24;19.10;;;7.75;;
78416;SDS011;67715;46.170;6.140;2023-06-22T08:53:50;13.18;;;7.28;;
78416;SDS011;67715;46.170;6.140;2023-06-22T08:56:15;17.13;;;6.90;;
78416;SDS011;67715;46.170;6.140;2023-06-22T08:58:40;17.88;;;7.25;;
78416;SDS011;67715;46.170;6.140;2023-06-22T09:01:06;11.77;;;7.27;;
78416;SDS011;67715;46.170;6.140;2023-06-22T09:03:31;16.52;;;7.28;;
78416;SDS011;67715;46.170;6.140;2023-06-22T09:05:57;14.57;;;6.57;;
78416;SDS011;67715;46.170;6.140;2023-06-22T09:08:23;15.32;;;7.22;;
78416;SDS011;67715;46.170;6.140;2023-06-22T09:10:48;17.27;;;7.10;;
78416;SDS011;67715;46.170;6.140;2023-06-22T09:13:14;16.80;;;6.67;;
78416;SDS011;67715;46.170;6.140;2023-06-22T09:15:39;23.60;;;7.32;;
78416;SDS011;67715;46.170;6.140;2023-06-22T09:18:04;14.13;;;6.88;;
78416;SDS011;67715;46.170;6.140;2023-06-22T09:20:30;11.77;;;5.80;;
78416;SDS011;67715;46.170;6.140;2023-06-22T09:22:55;14.95;;;5.90;;
78416;SDS011;67715;46.170;6.140;2023-06-22T09:25:20;16.00;;;6.07;;
78416;SDS011;67715;46.170;6.140;2023-06-22T09:27:46;11.47;;;6.90;;
78416;SDS011;67715;46.170;6.140;2023-06-22T09:30:12;11.35;;;5.38;;
78416;SDS011;67715;46.170;6.140;2023-06-22T09:32:37;14.23;;;6.00;;
78416;SDS011;67715;46.170;6.140;2023-06-22T09:35:04;16.10;;;6.15;;
78416;SDS011;67715;46.170;6.140;2023-06-22T09:37:30;14.07;;;7.32;;
78416;SDS011;67715;46.170;6.140;2023-06-22T09:39:56;10.52;;;4.88;;
78416;SDS011;67715;46.170;6.140;2023-06-22T09:42:21;12.70;;;6.17;;
78416;SDS011;67715;46.170;6.140;2023-06-22T09:44:46;9.63;;;5.60;;
78416;SDS011;67715;46.170;6.140;2023-06-22T09:47:12;11.43;;;5.77;;
78416;SDS011;67715;46.170;6.140;2023-06-22T09:49:37;13.07;;;5.40;;
78416;SDS011;67715;46.170;6.140;2023-06-22T09:52:02;10.60;;;5.70;;
78416;SDS011;67715;46.170;6.140;2023-06-22T09:54:28;10.38;;;5.45;;
78416;SDS011;67715;46.170;6.140;2023-06-22T09:56:53;13.40;;;5.20;;
78416;SDS011;67715;46.170;6.140;2023-06-22T09:59:18;15.90;;;5.77;;
78416;SDS011;67715;46.170;6.140;2023-06-22T10:01:44;12.07;;;5.77;;
78416;SDS011;67715;46.170;6.140;2023-06-22T10:04:09;11.23;;;5.60;;
78416;SDS011;67715;46.170;6.140;2023-06-22T10:06:34;11.97;;;5.27;;
78416;SDS011;67715;46.170;6.140;2023-06-22T10:09:00;12.77;;;6.20;;
78416;SDS011;67715;46.170;6.140;2023-06-22T10:11:25;14.80;;;6.00;;
78416;SDS011;67715;46.170;6.140;2023-06-22T10:13:54;14.65;;;5.35;;
78416;SDS011;67715;46.170;6.140;2023-06-22T10:16:19;18.55;;;6.05;;
78416;SDS011;67715;46.170;6.140;2023-06-22T10:18:45;11.82;;;6.05;;
78416;SDS011;67715;46.170;6.140;2023-06-22T10:21:10;11.27;;;5.63;;
78416;SDS011;67715;46.170;6.140;2023-06-22T10:23:35;11.93;;;5.40;;
78416;SDS011;67715;46.170;6.140;2023-06-22T10:26:01;14.10;;;6.43;;
78416;SDS011;67715;46.170;6.140;2023-06-22T10:28:26;12.97;;;6.67;;
78416;SDS011;67715;46.170;6.140;2023-06-22T10:30:51;12.53;;;6.87;;
78416;SDS011;67715;46.170;6.140;2023-06-22T10:33:16;16.07;;;7.03;;
78416;SDS011;67715;46.170;6.140;2023-06-22T10:35:42;15.27;;;5.90;;
78416;SDS011;67715;46.170;6.140;2023-06-22T10:38:07;13.63;;;6.40;;
78416;SDS011;67715;46.170;6.140;2023-06-22T10:40:33;13.02;;;6.00;;
78416;SDS011;67715;46.170;6.140;2023-06-22T10:42:58;13.13;;;5.32;;
78416;SDS011;67715;46.170;6.140;2023-06-22T10:45:24;11.02;;;4.85;;
78416;SDS011;67715;46.170;6.140;2023-06-22T10:47:49;9.63;;;4.50;;
78416;SDS011;67715;46.170;6.140;2023-06-22T10:50:15;9.87;;;4.80;;
78416;SDS011;67715;46.170;6.140;2023-06-22T10:52:40;9.70;;;4.47;;
78416;SDS011;67715;46.170;6.140;2023-06-22T10:55:06;8.30;;;4.35;;
78416;SDS011;67715;46.170;6.140;2023-06-22T10:57:32;7.05;;;3.65;;
78416;SDS011;67715;46.170;6.140;2023-06-22T10:59:58;9.90;;;4.20;;
78416;SDS011;67715;46.170;6.140;2023-06-22T11:02:23;12.03;;;4.57;;
78416;SDS011;67715;46.170;6.140;2023-06-22T11:04:49;10.52;;;4.22;;
78416;SDS011;67715;46.170;6.140;2023-06-22T11:07:15;6.10;;;3.60;;
78416;SDS011;67715;46.170;6.140;2023-06-22T11:09:40;8.53;;;4.57;;
78416;SDS011;67715;46.170;6.140;2023-06-22T11:12:06;8.57;;;4.30;;
78416;SDS011;67715;46.170;6.140;2023-06-22T11:14:31;8.60;;;4.57;;
78416;SDS011;67715;46.170;6.140;2023-06-22T11:16:58;11.10;;;4.60;;
78416;SDS011;67715;46.170;6.140;2023-06-22T11:19:23;8.95;;;3.80;;
78416;SDS011;67715;46.170;6.140;2023-06-22T11:21:49;13.63;;;4.57;;
78416;SDS011;67715;46.170;6.140;2023-06-22T11:24:14;8.93;;;3.73;;
78416;SDS011;67715;46.170;6.140;2023-06-22T11:26:41;11.57;;;4.05;;
78416;SDS011;67715;46.170;6.140;2023-06-22T11:29:06;7.10;;;3.28;;
78416;SDS011;67715;46.170;6.140;2023-06-22T11:31:33;11.40;;;3.83;;
78416;SDS011;67715;46.170;6.140;2023-06-22T11:34:02;9.95;;;3.67;;
78416;SDS011;67715;46.170;6.140;2023-06-22T11:36:27;8.10;;;2.88;;
78416;SDS011;67715;46.170;6.140;2023-06-22T11:38:54;10.32;;;3.20;;
78416;SDS011;67715;46.170;6.140;2023-06-22T11:41:19;10.30;;;4.15;;
78416;SDS011;67715;46.170;6.140;2023-06-22T11:43:44;6.07;;;2.80;;
78416;SDS011;67715;46.170;6.140;2023-06-22T11:46:10;5.60;;;3.50;;
78416;SDS011;67715;46.170;6.140;2023-06-22T11:48:35;15.23;;;3.90;;
78416;SDS011;67715;46.170;6.140;2023-06-22T11:51:01;8.63;;;3.15;;
78416;SDS011;67715;46.170;6.140;2023-06-22T11:53:27;9.77;;;4.13;;
78416;SDS011;67715;46.170;6.140;2023-06-22T11:55:53;10.13;;;3.80;;
78416;SDS011;67715;46.170;6.140;2023-06-22T11:58:19;10.55;;;3.05;;
78416;SDS011;67715;46.170;6.140;2023-06-22T12:00:44;9.00;;;2.88;;
78416;SDS011;67715;46.170;6.140;2023-06-22T12:03:10;7.63;;;2.60;;
78416;SDS011;67715;46.170;6.140;2023-06-22T12:05:36;8.27;;;2.95;;
78416;SDS011;67715;46.170;6.140;2023-06-22T12:08:01;10.52;;;3.00;;
78416;SDS011;67715;46.170;6.140;2023-06-22T12:10:27;11.87;;;3.00;;
78416;SDS011;67715;46.170;6.140;2023-06-22T12:12:55;9.85;;;2.80;;
78416;SDS011;67715;46.170;6.140;2023-06-22T12:15:20;6.27;;;2.90;;
78416;SDS011;67715;46.170;6.140;2023-06-22T12:17:45;10.93;;;2.40;;
78416;SDS011;67715;46.170;6.140;2023-06-22T12:20:13;7.32;;;2.55;;
78416;SDS011;67715;46.170;6.140;2023-06-22T12:22:38;6.38;;;3.63;;
78416;SDS011;67715;46.170;6.140;2023-06-22T12:25:03;9.32;;;2.78;;
78416;SDS011;67715;46.170;6.140;2023-06-22T12:27:29;6.57;;;2.63;;
78416;SDS011;67715;46.170;6.140;2023-06-22T12:29:55;10.82;;;3.10;;
78416;SDS011;67715;46.170;6.140;2023-06-22T12:32:21;9.80;;;2.88;;
78416;SDS011;67715;46.170;6.140;2023-06-22T12:34:46;11.00;;;3.47;;
78416;SDS011;67715;46.170;6.140;2023-06-22T12:37:11;10.23;;;3.00;;
78416;SDS011;67715;46.170;6.140;2023-06-22T12:39:37;14.13;;;3.07;;
78416;SDS011;67715;46.170;6.140;2023-06-22T12:42:02;8.03;;;2.90;;
78416;SDS011;67715;46.170;6.140;2023-06-22T12:44:28;7.88;;;2.67;;
78416;SDS011;67715;46.170;6.140;2023-06-22T12:46:53;7.10;;;2.67;;
78416;SDS011;67715;46.170;6.140;2023-06-22T12:49:18;9.40;;;3.55;;
78416;SDS011;67715;46.170;6.140;2023-06-22T12:51:44;17.93;;;3.83;;
78416;SDS011;67715;46.170;6.140;2023-06-22T12:54:10;8.68;;;3.10;;
78416;SDS011;67715;46.170;6.140;2023-06-22T12:56:35;8.50;;;2.75;;
78416;SDS011;67715;46.170;6.140;2023-06-22T12:59:01;11.13;;;2.58;;
78416;SDS011;67715;46.170;6.140;2023-06-22T13:01:27;9.83;;;3.07;;
78416;SDS011;67715;46.170;6.140;2023-06-22T13:03:53;7.57;;;2.80;;
78416;SDS011;67715;46.170;6.140;2023-06-22T13:06:18;8.45;;;2.83;;
78416;SDS011;67715;46.170;6.140;2023-06-22T13:08:43;11.02;;;3.70;;
78416;SDS011;67715;46.170;6.140;2023-06-22T13:11:09;9.37;;;3.27;;
78416;SDS011;67715;46.170;6.140;2023-06-22T13:13:34;10.57;;;3.30;;
78416;SDS011;67715;46.170;6.140;2023-06-22T13:15:59;12.30;;;3.40;;
78416;SDS011;67715;46.170;6.140;2023-06-22T13:18:25;10.03;;;3.03;;
78416;SDS011;67715;46.170;6.140;2023-06-22T13:20:50;14.03;;;4.03;;
78416;SDS011;67715;46.170;6.140;2023-06-22T13:23:15;8.00;;;3.10;;
78416;SDS011;67715;46.170;6.140;2023-06-22T13:25:40;9.17;;;3.50;;
78416;SDS011;67715;46.170;6.140;2023-06-22T13:28:06;10.85;;;3.53;;
78416;SDS011;67715;46.170;6.140;2023-06-22T13:30:31;5.83;;;3.03;;
78416;SDS011;67715;46.170;6.140;2023-06-22T13:32:57;6.93;;;3.10;;
78416;SDS011;67715;46.170;6.140;2023-06-22T13:35:22;6.97;;;3.33;;
78416;SDS011;67715;46.170;6.140;2023-06-22T13:37:47;11.88;;;3.80;;
78416;SDS011;67715;46.170;6.140;2023-06-22T13:40:13;6.03;;;3.13;;
78416;SDS011;67715;46.170;6.140;2023-06-22T13:42:39;8.70;;;3.67;;
78416;SDS011;67715;46.170;6.140;2023-06-22T13:45:05;5.57;;;3.03;;
78416;SDS011;67715;46.170;6.140;2023-06-22T13:47:31;7.57;;;3.25;;
78416;SDS011;67715;46.170;6.140;2023-06-22T13:49:57;5.88;;;2.67;;
78416;SDS011;67715;46.170;6.140;2023-06-22T13:52:22;8.55;;;2.97;;
78416;SDS011;67715;46.170;6.140;2023-06-22T13:54:48;7.50;;;3.17;;
78416;SDS011;67715;46.170;6.140;2023-06-22T13:57:13;8.53;;;3.30;;
78416;SDS011;67715;46.170;6.140;2023-06-22T13:59:38;7.17;;;2.70;;
78416;SDS011;67715;46.170;6.140;2023-06-22T14:02:04;4.67;;;2.40;;
78416;SDS011;67715;46.170;6.140;2023-06-22T14:04:29;6.68;;;2.55;;
78416;SDS011;67715;46.170;6.140;2023-06-22T14:06:55;7.82;;;2.22;;
78416;SDS011;67715;46.170;6.140;2023-06-22T14:09:21;9.40;;;3.50;;
78416;SDS011;67715;46.170;6.140;2023-06-22T14:11:47;5.60;;;2.63;;
78416;SDS011;67715;46.170;6.140;2023-06-22T14:14:12;6.17;;;2.53;;
78416;SDS011;67715;46.170;6.140;2023-06-22T14:16:38;9.43;;;2.00;;
78416;SDS011;67715;46.170;6.140;2023-06-22T14:19:03;3.83;;;1.97;;
78416;SDS011;67715;46.170;6.140;2023-06-22T14:21:28;4.43;;;2.30;;
78416;SDS011;67715;46.170;6.140;2023-06-22T14:23:54;4.63;;;2.37;;
78416;SDS011;67715;46.170;6.140;2023-06-22T14:26:19;4.25;;;2.28;;
78416;SDS011;67715;46.170;6.140;2023-06-22T14:28:45;4.70;;;2.20;;
78416;SDS011;67715;46.170;6.140;2023-06-22T14:31:15;4.55;;;2.03;;
78416;SDS011;67715;46.170;6.140;2023-06-22T14:33:41;7.03;;;2.17;;
78416;SDS011;67715;46.170;6.140;2023-06-22T14:36:08;9.15;;;1.95;;
78416;SDS011;67715;46.170;6.140;2023-06-22T14:38:33;6.03;;;2.30;;
78416;SDS011;67715;46.170;6.140;2023-06-22T14:40:59;11.23;;;3.42;;
78416;SDS011;67715;46.170;6.140;2023-06-22T14:43:24;15.27;;;3.80;;
78416;SDS011;67715;46.170;6.140;2023-06-22T14:45:50;8.40;;;2.70;;